sensor_id;sensor_type;location;lat;lon;timestamp;temperature;humidity
34135;DHT22;20410;55.578;12.968;2024-03-08T00:01:52;-0.10;1.00
34135;DHT22;20410;55.578;12.968;2024-03-08T00:04:18;0.00;1.00
34135;DHT22;20410;55.578;12.968;2024-03-08T00:06:44;-0.10;1.00
34135;DHT22;20410;55.578;12.968;2024-03-08T00:09:11;-0.20;1.00
34135;DHT22;20410;55.578;12.968;2024-03-08T00:11:37;-0.30;1.00
34135;DHT22;20410;55.578;12.968;2024-03-08T00:14:03;-0.30;1.00
34135;DHT22;20410;55.578;12.968;2024-03-08T00:16:32;-0.30;1.00
34135;DHT22;20410;55.578;12.968;2024-03-08T00:18:59;-0.30;1.00
34135;DHT22;20410;55.578;12.968;2024-03-08T00:21:24;-0.30;1.00
34135;DHT22;20410;55.578;12.968;2024-03-08T00:23:52;-0.30;1.00
34135;DHT22;20410;55.578;12.968;2024-03-08T00:26:20;-0.40;1.00
34135;DHT22;20410;55.578;12.968;2024-03-08T00:28:48;-0.40;1.00
34135;DHT22;20410;55.578;12.968;2024-03-08T00:31:14;-0.40;1.00
34135;DHT22;20410;55.578;12.968;2024-03-08T00:33:42;-0.40;1.00
34135;DHT22;20410;55.578;12.968;2024-03-08T00:36:08;-0.50;1.00
34135;DHT22;20410;55.578;12.968;2024-03-08T00:38:33;-0.50;1.00
34135;DHT22;20410;55.578;12.968;2024-03-08T00:40:59;-0.50;1.00
34135;DHT22;20410;55.578;12.968;2024-03-08T00:43:25;-0.40;1.00
34135;DHT22;20410;55.578;12.968;2024-03-08T00:45:51;-0.50;1.00
34135;DHT22;20410;55.578;12.968;2024-03-08T00:48:17;-0.50;1.00
34135;DHT22;20410;55.578;12.968;2024-03-08T00:50:42;-0.60;1.00
34135;DHT22;20410;55.578;12.968;2024-03-08T00:53:11;-0.60;1.00
34135;DHT22;20410;55.578;12.968;2024-03-08T00:55:37;-0.80;1.00
34135;DHT22;20410;55.578;12.968;2024-03-08T00:58:04;-0.80;1.00
34135;DHT22;20410;55.578;12.968;2024-03-08T01:00:29;-0.80;1.00
34135;DHT22;20410;55.578;12.968;2024-03-08T01:02:55;-0.80;1.00
34135;DHT22;20410;55.578;12.968;2024-03-08T01:05:21;-0.80;1.00
34135;DHT22;20410;55.578;12.968;2024-03-08T01:07:47;-0.80;1.00
34135;DHT22;20410;55.578;12.968;2024-03-08T01:10:12;-0.80;1.00
34135;DHT22;20410;55.578;12.968;2024-03-08T01:12:38;-0.90;1.00
34135;DHT22;20410;55.578;12.968;2024-03-08T01:15:05;-0.90;1.00
34135;DHT22;20410;55.578;12.968;2024-03-08T01:17:31;-0.90;1.00
34135;DHT22;20410;55.578;12.968;2024-03-08T01:19:56;-0.90;1.00
34135;DHT22;20410;55.578;12.968;2024-03-08T01:22:22;-0.90;1.00
34135;DHT22;20410;55.578;12.968;2024-03-08T01:24:48;-0.70;1.00
34135;DHT22;20410;55.578;12.968;2024-03-08T01:27:14;-0.70;1.00
34135;DHT22;20410;55.578;12.968;2024-03-08T01:29:40;-0.70;1.00
34135;DHT22;20410;55.578;12.968;2024-03-08T01:32:06;-0.80;1.00
34135;DHT22;20410;55.578;12.968;2024-03-08T01:34:31;-0.90;1.00
34135;DHT22;20410;55.578;12.968;2024-03-08T01:36:58;-0.90;1.00
34135;DHT22;20410;55.578;12.968;2024-03-08T01:39:25;-0.90;1.00
34135;DHT22;20410;55.578;12.968;2024-03-08T01:41:50;-1.00;1.00
34135;DHT22;20410;55.578;12.968;2024-03-08T01:44:16;-1.00;1.00
34135;DHT22;20410;55.578;12.968;2024-03-08T01:46:47;-1.10;1.00
34135;DHT22;20410;55.578;12.968;2024-03-08T01:49:14;-1.30;1.00
34135;DHT22;20410;55.578;12.968;2024-03-08T01:51:41;-1.40;1.00
34135;DHT22;20410;55.578;12.968;2024-03-08T01:54:07;-1.40;1.00
34135;DHT22;20410;55.578;12.968;2024-03-08T01:56:36;-1.30;1.00
34135;DHT22;20410;55.578;12.968;2024-03-08T01:59:03;-1.30;1.00
34135;DHT22;20410;55.578;12.968;2024-03-08T02:01:29;-1.20;1.00
34135;DHT22;20410;55.578;12.968;2024-03-08T02:03:54;-1.20;1.00
34135;DHT22;20410;55.578;12.968;2024-03-08T02:06:20;-1.20;1.00
34135;DHT22;20410;55.578;12.968;2024-03-08T02:08:46;-1.10;1.00
34135;DHT22;20410;55.578;12.968;2024-03-08T02:11:12;-1.10;1.00
34135;DHT22;20410;55.578;12.968;2024-03-08T02:13:38;-1.10;1.00
34135;DHT22;20410;55.578;12.968;2024-03-08T02:16:04;-1.20;1.00
34135;DHT22;20410;55.578;12.968;2024-03-08T02:18:33;-1.20;1.00
34135;DHT22;20410;55.578;12.968;2024-03-08T02:21:00;-1.30;1.00
34135;DHT22;20410;55.578;12.968;2024-03-08T02:23:27;-1.40;1.00
34135;DHT22;20410;55.578;12.968;2024-03-08T02:25:54;-1.50;1.00
34135;DHT22;20410;55.578;12.968;2024-03-08T02:28:22;-1.50;1.00
34135;DHT22;20410;55.578;12.968;2024-03-08T02:30:48;-1.40;1.00
34135;DHT22;20410;55.578;12.968;2024-03-08T02:33:14;-1.50;1.00
34135;DHT22;20410;55.578;12.968;2024-03-08T02:35:44;-1.50;1.00
34135;DHT22;20410;55.578;12.968;2024-03-08T02:38:17;-1.50;1.00
34135;DHT22;20410;55.578;12.968;2024-03-08T02:40:44;-1.60;1.00
34135;DHT22;20410;55.578;12.968;2024-03-08T02:43:11;-1.50;1.00
34135;DHT22;20410;55.578;12.968;2024-03-08T02:45:37;-1.50;1.00
34135;DHT22;20410;55.578;12.968;2024-03-08T02:48:04;-1.50;1.00
34135;DHT22;20410;55.578;12.968;2024-03-08T02:50:32;-1.30;1.00
34135;DHT22;20410;55.578;12.968;2024-03-08T02:52:57;-1.20;1.00
34135;DHT22;20410;55.578;12.968;2024-03-08T02:55:23;-1.10;1.00
34135;DHT22;20410;55.578;12.968;2024-03-08T02:57:52;-1.00;1.00
34135;DHT22;20410;55.578;12.968;2024-03-08T03:00:18;-0.90;1.00
34135;DHT22;20410;55.578;12.968;2024-03-08T03:02:45;-0.80;1.00
34135;DHT22;20410;55.578;12.968;2024-03-08T03:05:11;-0.80;1.00
34135;DHT22;20410;55.578;12.968;2024-03-08T03:07:37;-0.80;1.00
34135;DHT22;20410;55.578;12.968;2024-03-08T03:10:03;-1.00;1.00
34135;DHT22;20410;55.578;12.968;2024-03-08T03:12:29;-1.10;1.00
34135;DHT22;20410;55.578;12.968;2024-03-08T03:14:55;-1.10;1.00
34135;DHT22;20410;55.578;12.968;2024-03-08T03:17:22;-1.20;1.00
34135;DHT22;20410;55.578;12.968;2024-03-08T03:19:48;-1.30;1.00
34135;DHT22;20410;55.578;12.968;2024-03-08T03:22:14;-1.40;1.00
34135;DHT22;20410;55.578;12.968;2024-03-08T03:24:41;-1.50;1.00
34135;DHT22;20410;55.578;12.968;2024-03-08T03:27:07;-1.60;1.00
34135;DHT22;20410;55.578;12.968;2024-03-08T03:29:37;-1.60;1.00
34135;DHT22;20410;55.578;12.968;2024-03-08T03:32:03;-1.60;1.00
34135;DHT22;20410;55.578;12.968;2024-03-08T03:34:29;-1.60;1.00
34135;DHT22;20410;55.578;12.968;2024-03-08T03:36:55;-1.70;1.00
34135;DHT22;20410;55.578;12.968;2024-03-08T03:39:21;-1.70;1.00
34135;DHT22;20410;55.578;12.968;2024-03-08T03:41:48;-1.70;1.00
34135;DHT22;20410;55.578;12.968;2024-03-08T03:44:17;-1.60;1.00
34135;DHT22;20410;55.578;12.968;2024-03-08T03:46:43;-1.60;1.00
34135;DHT22;20410;55.578;12.968;2024-03-08T03:49:12;-1.60;1.00
34135;DHT22;20410;55.578;12.968;2024-03-08T03:51:37;-1.60;1.00
34135;DHT22;20410;55.578;12.968;2024-03-08T03:54:03;-1.70;1.00
34135;DHT22;20410;55.578;12.968;2024-03-08T03:56:29;-1.80;1.00
34135;DHT22;20410;55.578;12.968;2024-03-08T03:58:56;-1.80;1.00
34135;DHT22;20410;55.578;12.968;2024-03-08T04:01:22;-1.80;1.00
34135;DHT22;20410;55.578;12.968;2024-03-08T04:03:47;-1.80;1.00
34135;DHT22;20410;55.578;12.968;2024-03-08T04:06:13;-1.90;1.00
34135;DHT22;20410;55.578;12.968;2024-03-08T04:08:39;-2.00;1.00
34135;DHT22;20410;55.578;12.968;2024-03-08T04:11:05;-2.00;1.00
34135;DHT22;20410;55.578;12.968;2024-03-08T04:13:30;-2.10;1.00
34135;DHT22;20410;55.578;12.968;2024-03-08T04:15:56;-2.20;1.00
34135;DHT22;20410;55.578;12.968;2024-03-08T04:18:22;-2.10;1.00
34135;DHT22;20410;55.578;12.968;2024-03-08T04:20:47;-2.00;1.00
34135;DHT22;20410;55.578;12.968;2024-03-08T04:23:13;-1.90;1.00
34135;DHT22;20410;55.578;12.968;2024-03-08T04:25:38;-1.80;1.00
34135;DHT22;20410;55.578;12.968;2024-03-08T04:28:04;-1.80;1.00
34135;DHT22;20410;55.578;12.968;2024-03-08T04:30:30;-1.80;1.00
34135;DHT22;20410;55.578;12.968;2024-03-08T04:32:55;-1.80;1.00
34135;DHT22;20410;55.578;12.968;2024-03-08T04:35:21;-1.70;1.00
34135;DHT22;20410;55.578;12.968;2024-03-08T04:37:47;-1.60;1.00
34135;DHT22;20410;55.578;12.968;2024-03-08T04:40:12;-1.60;1.00
34135;DHT22;20410;55.578;12.968;2024-03-08T04:42:39;-1.70;1.00
34135;DHT22;20410;55.578;12.968;2024-03-08T04:45:05;-1.70;1.00
34135;DHT22;20410;55.578;12.968;2024-03-08T04:47:33;-1.80;1.00
34135;DHT22;20410;55.578;12.968;2024-03-08T04:49:58;-1.80;1.00
34135;DHT22;20410;55.578;12.968;2024-03-08T04:52:25;-1.90;1.00
34135;DHT22;20410;55.578;12.968;2024-03-08T04:54:51;-2.00;1.00
34135;DHT22;20410;55.578;12.968;2024-03-08T04:57:16;-2.00;1.00
34135;DHT22;20410;55.578;12.968;2024-03-08T04:59:43;-2.10;1.00
34135;DHT22;20410;55.578;12.968;2024-03-08T05:02:09;-2.20;1.00
34135;DHT22;20410;55.578;12.968;2024-03-08T05:04:34;-2.30;1.00
34135;DHT22;20410;55.578;12.968;2024-03-08T05:07:00;-2.30;1.00
34135;DHT22;20410;55.578;12.968;2024-03-08T05:09:29;-2.30;1.00
34135;DHT22;20410;55.578;12.968;2024-03-08T05:11:57;-2.30;1.00
34135;DHT22;20410;55.578;12.968;2024-03-08T05:14:25;-2.40;1.00
34135;DHT22;20410;55.578;12.968;2024-03-08T05:16:50;-2.40;1.00
34135;DHT22;20410;55.578;12.968;2024-03-08T05:19:20;-2.40;1.00
34135;DHT22;20410;55.578;12.968;2024-03-08T05:21:49;-2.40;1.00
34135;DHT22;20410;55.578;12.968;2024-03-08T05:24:15;-2.40;1.00
34135;DHT22;20410;55.578;12.968;2024-03-08T05:26:42;-2.40;1.00
34135;DHT22;20410;55.578;12.968;2024-03-08T05:29:08;-2.40;1.00
34135;DHT22;20410;55.578;12.968;2024-03-08T05:31:51;-2.40;1.00
34135;DHT22;20410;55.578;12.968;2024-03-08T05:34:19;-2.40;1.00
34135;DHT22;20410;55.578;12.968;2024-03-08T05:36:45;-2.50;1.00
34135;DHT22;20410;55.578;12.968;2024-03-08T05:39:18;-2.60;1.00
34135;DHT22;20410;55.578;12.968;2024-03-08T05:41:44;-2.80;1.00
34135;DHT22;20410;55.578;12.968;2024-03-08T05:44:11;-2.90;1.00
34135;DHT22;20410;55.578;12.968;2024-03-08T05:46:37;-2.90;1.00
34135;DHT22;20410;55.578;12.968;2024-03-08T05:49:06;-2.90;1.00
34135;DHT22;20410;55.578;12.968;2024-03-08T05:51:37;-3.00;1.00
34135;DHT22;20410;55.578;12.968;2024-03-08T05:54:04;-3.00;1.00
34135;DHT22;20410;55.578;12.968;2024-03-08T05:56:31;-2.90;1.00
34135;DHT22;20410;55.578;12.968;2024-03-08T05:58:57;-2.80;1.00
34135;DHT22;20410;55.578;12.968;2024-03-08T06:01:24;-2.80;1.00
34135;DHT22;20410;55.578;12.968;2024-03-08T06:03:49;-2.80;1.00
34135;DHT22;20410;55.578;12.968;2024-03-08T06:06:15;-2.70;1.00
34135;DHT22;20410;55.578;12.968;2024-03-08T06:08:41;-2.70;1.00
34135;DHT22;20410;55.578;12.968;2024-03-08T06:11:09;-2.70;1.00
34135;DHT22;20410;55.578;12.968;2024-03-08T06:13:35;-2.70;1.00
34135;DHT22;20410;55.578;12.968;2024-03-08T06:16:01;-2.70;1.00
34135;DHT22;20410;55.578;12.968;2024-03-08T06:18:30;-2.60;1.00
34135;DHT22;20410;55.578;12.968;2024-03-08T06:20:56;-2.50;1.00
34135;DHT22;20410;55.578;12.968;2024-03-08T06:23:22;-2.40;1.00
34135;DHT22;20410;55.578;12.968;2024-03-08T06:25:48;-2.40;1.00
34135;DHT22;20410;55.578;12.968;2024-03-08T06:28:14;-2.30;1.00
34135;DHT22;20410;55.578;12.968;2024-03-08T06:30:40;-2.10;1.00
34135;DHT22;20410;55.578;12.968;2024-03-08T06:33:07;-2.10;1.00
34135;DHT22;20410;55.578;12.968;2024-03-08T06:35:32;-2.00;1.00
34135;DHT22;20410;55.578;12.968;2024-03-08T06:37:58;-1.90;1.00
34135;DHT22;20410;55.578;12.968;2024-03-08T06:40:24;-1.80;1.00
34135;DHT22;20410;55.578;12.968;2024-03-08T06:42:49;-1.80;1.00
34135;DHT22;20410;55.578;12.968;2024-03-08T06:45:17;-1.70;1.00
34135;DHT22;20410;55.578;12.968;2024-03-08T06:47:46;-1.70;1.00
34135;DHT22;20410;55.578;12.968;2024-03-08T06:50:12;-1.60;1.00
34135;DHT22;20410;55.578;12.968;2024-03-08T06:52:39;-1.40;1.00
34135;DHT22;20410;55.578;12.968;2024-03-08T06:55:05;-1.30;1.00
34135;DHT22;20410;55.578;12.968;2024-03-08T06:57:31;-1.20;1.00
34135;DHT22;20410;55.578;12.968;2024-03-08T06:59:57;-1.10;1.00
34135;DHT22;20410;55.578;12.968;2024-03-08T07:02:23;-1.00;1.00
34135;DHT22;20410;55.578;12.968;2024-03-08T07:04:52;-0.90;1.00
34135;DHT22;20410;55.578;12.968;2024-03-08T07:07:18;-0.80;1.00
34135;DHT22;20410;55.578;12.968;2024-03-08T07:09:45;-0.80;1.00
34135;DHT22;20410;55.578;12.968;2024-03-08T07:12:11;-0.70;1.00
34135;DHT22;20410;55.578;12.968;2024-03-08T07:14:39;-0.70;1.00
34135;DHT22;20410;55.578;12.968;2024-03-08T07:17:06;-0.60;1.00
34135;DHT22;20410;55.578;12.968;2024-03-08T07:19:34;-0.50;1.00
34135;DHT22;20410;55.578;12.968;2024-03-08T07:22:00;-0.40;1.00
34135;DHT22;20410;55.578;12.968;2024-03-08T07:24:25;-0.30;1.00
34135;DHT22;20410;55.578;12.968;2024-03-08T07:27:16;-0.30;1.00
34135;DHT22;20410;55.578;12.968;2024-03-08T07:29:42;-0.20;1.00
34135;DHT22;20410;55.578;12.968;2024-03-08T07:32:08;-0.20;1.00
34135;DHT22;20410;55.578;12.968;2024-03-08T07:34:50;-0.10;1.00
34135;DHT22;20410;55.578;12.968;2024-03-08T07:37:17;0.00;1.00
34135;DHT22;20410;55.578;12.968;2024-03-08T07:39:43;0.10;1.00
34135;DHT22;20410;55.578;12.968;2024-03-08T07:42:09;0.10;1.00
34135;DHT22;20410;55.578;12.968;2024-03-08T07:44:36;0.20;1.00
34135;DHT22;20410;55.578;12.968;2024-03-08T07:47:01;0.40;1.00
34135;DHT22;20410;55.578;12.968;2024-03-08T07:49:27;0.50;1.00
34135;DHT22;20410;55.578;12.968;2024-03-08T07:51:53;0.50;1.00
34135;DHT22;20410;55.578;12.968;2024-03-08T07:54:18;0.60;1.00
34135;DHT22;20410;55.578;12.968;2024-03-08T07:56:44;0.70;1.00
34135;DHT22;20410;55.578;12.968;2024-03-08T07:59:10;0.70;1.00
34135;DHT22;20410;55.578;12.968;2024-03-08T08:01:37;0.80;1.00
34135;DHT22;20410;55.578;12.968;2024-03-08T08:04:03;1.00;1.00
34135;DHT22;20410;55.578;12.968;2024-03-08T08:06:29;1.10;1.00
34135;DHT22;20410;55.578;12.968;2024-03-08T08:08:57;1.20;1.00
34135;DHT22;20410;55.578;12.968;2024-03-08T08:11:25;1.40;1.00
34135;DHT22;20410;55.578;12.968;2024-03-08T08:13:51;1.40;1.00
34135;DHT22;20410;55.578;12.968;2024-03-08T08:16:16;1.30;1.00
34135;DHT22;20410;55.578;12.968;2024-03-08T08:18:42;1.40;1.00
34135;DHT22;20410;55.578;12.968;2024-03-08T08:21:07;1.30;1.00
34135;DHT22;20410;55.578;12.968;2024-03-08T08:23:33;1.30;1.00
34135;DHT22;20410;55.578;12.968;2024-03-08T08:25:58;1.30;1.00
34135;DHT22;20410;55.578;12.968;2024-03-08T08:28:24;1.30;1.00
34135;DHT22;20410;55.578;12.968;2024-03-08T08:30:50;1.40;1.00
34135;DHT22;20410;55.578;12.968;2024-03-08T08:33:16;1.40;1.00
34135;DHT22;20410;55.578;12.968;2024-03-08T08:35:41;1.50;1.00
34135;DHT22;20410;55.578;12.968;2024-03-08T08:38:08;1.50;1.00
34135;DHT22;20410;55.578;12.968;2024-03-08T08:40:34;1.50;1.00
34135;DHT22;20410;55.578;12.968;2024-03-08T08:43:01;1.60;1.00
34135;DHT22;20410;55.578;12.968;2024-03-08T08:45:30;1.70;1.00
34135;DHT22;20410;55.578;12.968;2024-03-08T08:47:56;1.90;1.00
34135;DHT22;20410;55.578;12.968;2024-03-08T08:50:22;2.00;1.00
34135;DHT22;20410;55.578;12.968;2024-03-08T08:52:52;1.90;1.00
34135;DHT22;20410;55.578;12.968;2024-03-08T08:55:18;1.90;1.00
34135;DHT22;20410;55.578;12.968;2024-03-08T08:57:46;2.00;1.00
34135;DHT22;20410;55.578;12.968;2024-03-08T09:00:13;2.10;1.00
34135;DHT22;20410;55.578;12.968;2024-03-08T09:02:41;1.90;1.00
34135;DHT22;20410;55.578;12.968;2024-03-08T09:05:07;1.90;1.00
34135;DHT22;20410;55.578;12.968;2024-03-08T09:07:37;2.10;1.00
34135;DHT22;20410;55.578;12.968;2024-03-08T09:10:03;2.20;1.00
34135;DHT22;20410;55.578;12.968;2024-03-08T09:12:29;2.30;1.00
34135;DHT22;20410;55.578;12.968;2024-03-08T09:14:54;2.40;1.00
34135;DHT22;20410;55.578;12.968;2024-03-08T09:17:20;2.50;1.00
34135;DHT22;20410;55.578;12.968;2024-03-08T09:19:49;2.60;1.00
34135;DHT22;20410;55.578;12.968;2024-03-08T09:22:15;2.70;1.00
34135;DHT22;20410;55.578;12.968;2024-03-08T09:24:41;2.70;1.00
34135;DHT22;20410;55.578;12.968;2024-03-08T09:27:08;2.80;1.00
34135;DHT22;20410;55.578;12.968;2024-03-08T09:29:35;2.90;1.00
34135;DHT22;20410;55.578;12.968;2024-03-08T09:32:01;3.00;1.00
34135;DHT22;20410;55.578;12.968;2024-03-08T09:34:26;3.00;1.00
34135;DHT22;20410;55.578;12.968;2024-03-08T09:36:52;3.00;1.00
34135;DHT22;20410;55.578;12.968;2024-03-08T09:39:18;3.00;1.00
34135;DHT22;20410;55.578;12.968;2024-03-08T09:41:46;3.10;1.00
34135;DHT22;20410;55.578;12.968;2024-03-08T09:44:15;3.20;1.00
34135;DHT22;20410;55.578;12.968;2024-03-08T09:46:42;3.20;1.00
34135;DHT22;20410;55.578;12.968;2024-03-08T09:49:08;3.10;1.00
34135;DHT22;20410;55.578;12.968;2024-03-08T09:51:34;3.10;1.00
34135;DHT22;20410;55.578;12.968;2024-03-08T09:54:05;3.20;1.00
34135;DHT22;20410;55.578;12.968;2024-03-08T09:56:35;3.30;1.00
34135;DHT22;20410;55.578;12.968;2024-03-08T09:59:02;3.40;1.00
34135;DHT22;20410;55.578;12.968;2024-03-08T10:01:50;3.40;1.00
34135;DHT22;20410;55.578;12.968;2024-03-08T10:04:17;3.60;1.00
34135;DHT22;20410;55.578;12.968;2024-03-08T10:06:43;3.70;1.00
34135;DHT22;20410;55.578;12.968;2024-03-08T10:09:12;3.60;1.00
34135;DHT22;20410;55.578;12.968;2024-03-08T10:11:38;3.50;1.00
34135;DHT22;20410;55.578;12.968;2024-03-08T10:14:05;3.40;1.00
34135;DHT22;20410;55.578;12.968;2024-03-08T10:16:39;3.30;1.00
34135;DHT22;20410;55.578;12.968;2024-03-08T10:19:15;3.40;1.00
34135;DHT22;20410;55.578;12.968;2024-03-08T10:21:54;3.60;1.00
34135;DHT22;20410;55.578;12.968;2024-03-08T10:24:23;3.70;1.00
34135;DHT22;20410;55.578;12.968;2024-03-08T10:27:10;3.90;1.00
34135;DHT22;20410;55.578;12.968;2024-03-08T10:29:46;4.10;1.00
34135;DHT22;20410;55.578;12.968;2024-03-08T10:32:19;4.20;1.00
34135;DHT22;20410;55.578;12.968;2024-03-08T10:34:45;4.40;1.00
34135;DHT22;20410;55.578;12.968;2024-03-08T10:37:15;4.60;1.00
34135;DHT22;20410;55.578;12.968;2024-03-08T10:40:04;4.70;1.00
34135;DHT22;20410;55.578;12.968;2024-03-08T10:42:40;4.90;1.00
34135;DHT22;20410;55.578;12.968;2024-03-08T10:45:15;5.00;1.00
34135;DHT22;20410;55.578;12.968;2024-03-08T10:47:49;5.30;1.00
34135;DHT22;20410;55.578;12.968;2024-03-08T10:50:20;5.40;1.00
34135;DHT22;20410;55.578;12.968;2024-03-08T10:52:51;5.40;1.00
34135;DHT22;20410;55.578;12.968;2024-03-08T10:55:19;5.50;1.00
34135;DHT22;20410;55.578;12.968;2024-03-08T10:57:49;5.60;1.00
34135;DHT22;20410;55.578;12.968;2024-03-08T11:00:14;5.60;1.00
34135;DHT22;20410;55.578;12.968;2024-03-08T11:02:51;5.70;1.00
34135;DHT22;20410;55.578;12.968;2024-03-08T11:08:24;5.80;1.00
34135;DHT22;20410;55.578;12.968;2024-03-08T11:10:50;5.90;1.00
34135;DHT22;20410;55.578;12.968;2024-03-08T11:13:35;6.00;1.00
34135;DHT22;20410;55.578;12.968;2024-03-08T11:16:08;6.20;1.00
34135;DHT22;20410;55.578;12.968;2024-03-08T11:18:35;6.40;1.00
34135;DHT22;20410;55.578;12.968;2024-03-08T11:21:07;6.60;1.00
34135;DHT22;20410;55.578;12.968;2024-03-08T11:23:38;6.70;1.00
34135;DHT22;20410;55.578;12.968;2024-03-08T11:26:20;6.90;1.00
34135;DHT22;20410;55.578;12.968;2024-03-08T11:28:46;7.10;1.00
34135;DHT22;20410;55.578;12.968;2024-03-08T11:33:40;7.20;1.00
34135;DHT22;20410;55.578;12.968;2024-03-08T11:36:14;7.40;1.00
34135;DHT22;20410;55.578;12.968;2024-03-08T11:38:49;7.50;1.00
34135;DHT22;20410;55.578;12.968;2024-03-08T11:41:24;7.60;1.00
34135;DHT22;20410;55.578;12.968;2024-03-08T11:44:03;7.60;1.00
34135;DHT22;20410;55.578;12.968;2024-03-08T11:46:45;7.70;1.00
34135;DHT22;20410;55.578;12.968;2024-03-08T11:49:14;7.70;1.00
34135;DHT22;20410;55.578;12.968;2024-03-08T11:55:12;7.90;1.00
34135;DHT22;20410;55.578;12.968;2024-03-08T11:58:19;7.90;1.00
34135;DHT22;20410;55.578;12.968;2024-03-08T12:04:45;8.00;1.00
34135;DHT22;20410;55.578;12.968;2024-03-08T12:07:30;8.10;1.00
34135;DHT22;20410;55.578;12.968;2024-03-08T12:28:18;8.30;1.00
34135;DHT22;20410;55.578;12.968;2024-03-08T12:30:53;8.40;1.00
34135;DHT22;20410;55.578;12.968;2024-03-08T12:33:21;8.40;1.00
34135;DHT22;20410;55.578;12.968;2024-03-08T12:35:51;8.40;1.00
34135;DHT22;20410;55.578;12.968;2024-03-08T12:38:20;8.50;1.00
34135;DHT22;20410;55.578;12.968;2024-03-08T12:40:59;8.40;1.00
34135;DHT22;20410;55.578;12.968;2024-03-08T12:43:26;8.30;1.00
34135;DHT22;20410;55.578;12.968;2024-03-08T12:45:51;8.40;1.00
34135;DHT22;20410;55.578;12.968;2024-03-08T12:48:18;8.50;1.00
34135;DHT22;20410;55.578;12.968;2024-03-08T12:50:50;8.50;1.00
34135;DHT22;20410;55.578;12.968;2024-03-08T12:53:20;8.50;1.00
34135;DHT22;20410;55.578;12.968;2024-03-08T12:56:05;8.50;1.00
34135;DHT22;20410;55.578;12.968;2024-03-08T13:02:05;8.60;1.00
34135;DHT22;20410;55.578;12.968;2024-03-08T13:04:42;8.50;1.00
34135;DHT22;20410;55.578;12.968;2024-03-08T13:07:08;8.50;1.00
34135;DHT22;20410;55.578;12.968;2024-03-08T13:09:52;8.50;1.00
34135;DHT22;20410;55.578;12.968;2024-03-08T13:12:18;8.50;1.00
34135;DHT22;20410;55.578;12.968;2024-03-08T13:14:45;8.50;1.00
34135;DHT22;20410;55.578;12.968;2024-03-08T13:17:12;8.60;1.00
34135;DHT22;20410;55.578;12.968;2024-03-08T13:19:41;8.70;1.00
34135;DHT22;20410;55.578;12.968;2024-03-08T13:22:12;8.80;1.00
34135;DHT22;20410;55.578;12.968;2024-03-08T13:24:44;8.80;1.00
34135;DHT22;20410;55.578;12.968;2024-03-08T13:27:11;8.90;1.00
34135;DHT22;20410;55.578;12.968;2024-03-08T13:29:46;8.90;1.00
34135;DHT22;20410;55.578;12.968;2024-03-08T13:32:12;9.00;1.00
34135;DHT22;20410;55.578;12.968;2024-03-08T13:34:44;9.10;1.00
34135;DHT22;20410;55.578;12.968;2024-03-08T13:37:10;9.20;1.00
34135;DHT22;20410;55.578;12.968;2024-03-08T13:39:37;9.30;1.00
34135;DHT22;20410;55.578;12.968;2024-03-08T13:42:17;9.20;1.00
34135;DHT22;20410;55.578;12.968;2024-03-08T13:44:45;9.20;1.00
34135;DHT22;20410;55.578;12.968;2024-03-08T13:47:13;9.30;1.00
34135;DHT22;20410;55.578;12.968;2024-03-08T13:49:39;9.40;1.00
34135;DHT22;20410;55.578;12.968;2024-03-08T13:52:05;9.40;1.00
34135;DHT22;20410;55.578;12.968;2024-03-08T13:54:30;9.60;1.00
34135;DHT22;20410;55.578;12.968;2024-03-08T13:56:57;9.40;99.90
34135;DHT22;20410;55.578;12.968;2024-03-08T13:59:23;9.40;1.00
34135;DHT22;20410;55.578;12.968;2024-03-08T14:01:49;9.40;1.00
34135;DHT22;20410;55.578;12.968;2024-03-08T14:04:15;9.40;1.00
34135;DHT22;20410;55.578;12.968;2024-03-08T14:06:44;9.30;99.90
34135;DHT22;20410;55.578;12.968;2024-03-08T14:09:12;9.20;1.00
34135;DHT22;20410;55.578;12.968;2024-03-08T14:11:45;9.10;99.90
34135;DHT22;20410;55.578;12.968;2024-03-08T14:14:11;9.20;1.00
34135;DHT22;20410;55.578;12.968;2024-03-08T14:16:39;9.30;1.00
34135;DHT22;20410;55.578;12.968;2024-03-08T14:19:04;9.20;99.90
34135;DHT22;20410;55.578;12.968;2024-03-08T14:21:31;9.10;1.00
34135;DHT22;20410;55.578;12.968;2024-03-08T14:23:57;9.20;1.00
34135;DHT22;20410;55.578;12.968;2024-03-08T14:26:23;9.30;1.00
34135;DHT22;20410;55.578;12.968;2024-03-08T14:28:49;9.40;1.00
34135;DHT22;20410;55.578;12.968;2024-03-08T14:31:22;9.50;99.90
34135;DHT22;20410;55.578;12.968;2024-03-08T14:33:53;9.40;99.90
34135;DHT22;20410;55.578;12.968;2024-03-08T14:37:03;9.40;99.90
34135;DHT22;20410;55.578;12.968;2024-03-08T14:39:33;9.40;99.90
34135;DHT22;20410;55.578;12.968;2024-03-08T14:42:07;9.50;99.90
34135;DHT22;20410;55.578;12.968;2024-03-08T14:44:38;9.60;99.90
34135;DHT22;20410;55.578;12.968;2024-03-08T14:47:04;9.60;99.90
34135;DHT22;20410;55.578;12.968;2024-03-08T14:49:31;9.60;99.90
34135;DHT22;20410;55.578;12.968;2024-03-08T14:52:02;9.50;99.90
34135;DHT22;20410;55.578;12.968;2024-03-08T14:54:35;9.50;99.90
34135;DHT22;20410;55.578;12.968;2024-03-08T14:57:23;9.40;99.90
34135;DHT22;20410;55.578;12.968;2024-03-08T15:00:21;9.40;99.90
34135;DHT22;20410;55.578;12.968;2024-03-08T15:02:59;9.40;99.90
34135;DHT22;20410;55.578;12.968;2024-03-08T15:05:27;9.30;99.90
34135;DHT22;20410;55.578;12.968;2024-03-08T15:07:54;9.30;99.90
34135;DHT22;20410;55.578;12.968;2024-03-08T15:10:39;9.30;99.90
34135;DHT22;20410;55.578;12.968;2024-03-08T15:13:10;9.20;99.90
34135;DHT22;20410;55.578;12.968;2024-03-08T15:15:56;9.20;99.90
34135;DHT22;20410;55.578;12.968;2024-03-08T15:18:25;9.10;99.90
34135;DHT22;20410;55.578;12.968;2024-03-08T15:20:54;9.00;99.90
34135;DHT22;20410;55.578;12.968;2024-03-08T15:23:20;8.80;1.00
34135;DHT22;20410;55.578;12.968;2024-03-08T15:25:47;8.70;37.20
34135;DHT22;20410;55.578;12.968;2024-03-08T15:28:15;8.90;99.90
34135;DHT22;20410;55.578;12.968;2024-03-08T15:30:43;8.80;1.00
34135;DHT22;20410;55.578;12.968;2024-03-08T15:33:15;8.70;41.10
34135;DHT22;20410;55.578;12.968;2024-03-08T15:35:50;8.60;99.90
34135;DHT22;20410;55.578;12.968;2024-03-08T15:38:23;8.40;99.90
34135;DHT22;20410;55.578;12.968;2024-03-08T15:40:49;8.30;99.90
34135;DHT22;20410;55.578;12.968;2024-03-08T15:43:16;8.10;99.90
34135;DHT22;20410;55.578;12.968;2024-03-08T15:45:45;8.10;99.90
34135;DHT22;20410;55.578;12.968;2024-03-08T15:48:12;8.00;99.90
34135;DHT22;20410;55.578;12.968;2024-03-08T15:50:38;7.90;99.90
34135;DHT22;20410;55.578;12.968;2024-03-08T15:53:04;7.90;99.90
34135;DHT22;20410;55.578;12.968;2024-03-08T15:55:30;7.80;99.90
34135;DHT22;20410;55.578;12.968;2024-03-08T15:57:56;7.80;99.90
34135;DHT22;20410;55.578;12.968;2024-03-08T16:00:25;7.90;1.00
34135;DHT22;20410;55.578;12.968;2024-03-08T16:03:12;7.70;99.90
34135;DHT22;20410;55.578;12.968;2024-03-08T16:05:42;7.50;99.90
34135;DHT22;20410;55.578;12.968;2024-03-08T16:08:12;7.30;1.00
34135;DHT22;20410;55.578;12.968;2024-03-08T16:10:46;7.30;99.90
34135;DHT22;20410;55.578;12.968;2024-03-08T16:13:22;7.30;1.00
34135;DHT22;20410;55.578;12.968;2024-03-08T16:15:50;7.20;1.00
34135;DHT22;20410;55.578;12.968;2024-03-08T16:18:17;7.20;1.00
34135;DHT22;20410;55.578;12.968;2024-03-08T16:20:46;7.10;1.00